createdAt,value
2018-05-18T00:01:12.121Z,100332.77
2018-05-18T00:03:40.556Z,100330.14
2018-05-18T00:06:09.016Z,100329.96
2018-05-18T00:08:37.436Z,100330.47
2018-05-18T00:11:05.873Z,100329.17
2018-05-18T00:13:34.346Z,100327.66
2018-05-18T00:16:02.773Z,100328.06
2018-05-18T00:18:31.212Z,100324.25
2018-05-18T00:20:59.816Z,100319.58
2018-05-18T00:23:28.246Z,100316.73
2018-05-18T00:25:56.668Z,100318.83
2018-05-18T00:28:25.149Z,100316.84
2018-05-18T00:30:53.573Z,100317.52
2018-05-18T00:33:22.005Z,100317.05
2018-05-18T00:35:50.474Z,100316.58
2018-05-18T00:38:18.909Z,100318.50
2018-05-18T00:40:47.335Z,100312.91
2018-05-18T00:43:15.801Z,100316.28
2018-05-18T00:45:44.233Z,100312.27
2018-05-18T00:48:12.686Z,100314.23
2018-05-18T00:50:41.152Z,100312.09
2018-05-18T00:53:09.576Z,100310.81
2018-05-18T00:55:40.980Z,100312.95
2018-05-18T00:58:09.467Z,100309.89
2018-05-18T01:00:37.896Z,100316.78
2018-05-18T01:03:06.334Z,100306.13
2018-05-18T01:05:34.813Z,100311.87
2018-05-18T01:08:03.299Z,100311.39
2018-05-18T01:10:31.731Z,100316.46
2018-05-18T01:13:00.209Z,100308.23
2018-05-18T01:15:28.642Z,100305.73
2018-05-18T01:17:57.063Z,100307.95
2018-05-18T01:20:25.546Z,100318.17
2018-05-18T01:22:53.973Z,100321.91
2018-05-18T01:25:22.540Z,100320.91
2018-05-18T01:27:51.015Z,100321.50
2018-05-18T01:30:19.449Z,100322.59
2018-05-18T01:32:47.876Z,100319.53
2018-05-18T01:35:16.346Z,100319.53
2018-05-18T01:37:44.779Z,100322.78
2018-05-18T01:40:13.591Z,100320.56
2018-05-18T01:42:42.070Z,100319.53
2018-05-18T01:45:10.500Z,100317.08
2018-05-18T01:47:38.933Z,100316.25
2018-05-18T01:50:07.420Z,100315.78
2018-05-18T01:52:35.841Z,100313.70
2018-05-18T01:55:04.295Z,100316.50
2018-05-18T01:57:32.752Z,100317.86
2018-05-18T02:00:01.185Z,100317.10
2018-05-18T02:02:29.619Z,100323.36
2018-05-18T02:04:58.085Z,100323.97
2018-05-18T02:07:26.509Z,100324.11
2018-05-18T02:09:54.930Z,100322.28
2018-05-18T02:12:23.404Z,100325.70
2018-05-18T02:14:51.824Z,100323.15
2018-05-18T02:17:20.263Z,100319.12
2018-05-18T02:19:48.744Z,100327.14
2018-05-18T02:22:17.168Z,100316.48
2018-05-18T02:24:45.589Z,100317.66
2018-05-18T02:27:14.069Z,100321.25
2018-05-18T02:29:42.503Z,100316.69
2018-05-18T02:32:10.917Z,100319.84
2018-05-18T02:34:39.404Z,100319.12
2018-05-18T02:37:07.829Z,100325.63
2018-05-18T02:39:36.264Z,100322.02
2018-05-18T02:42:04.767Z,100327.50
2018-05-18T02:44:33.188Z,100325.05
2018-05-18T02:47:01.618Z,100327.02
2018-05-18T02:49:30.092Z,100332.72
2018-05-18T02:51:58.533Z,100336.14
2018-05-18T02:54:26.971Z,100330.19
2018-05-18T02:56:55.428Z,100336.14
2018-05-18T02:59:23.848Z,100337.52
2018-05-18T03:01:52.284Z,100335.31
2018-05-18T03:04:20.761Z,100339.40
2018-05-18T03:06:49.197Z,100335.32
2018-05-18T03:09:17.659Z,100341.70
2018-05-18T03:11:46.121Z,100343.16
2018-05-18T03:14:14.555Z,100336.34
2018-05-18T03:16:42.986Z,100336.34
2018-05-18T03:19:11.449Z,100339.40
2018-05-18T03:21:39.873Z,100346.13
2018-05-18T03:24:08.298Z,100345.75
2018-05-18T03:26:36.761Z,100353.97
2018-05-18T03:29:05.204Z,100340.58
2018-05-18T03:31:33.630Z,100340.48
2018-05-18T03:34:02.123Z,100346.52
2018-05-18T03:36:30.552Z,100345.36
2018-05-18T03:38:58.984Z,100347.97
2018-05-18T03:41:27.452Z,100344.76
2018-05-18T03:43:55.873Z,100346.92
2018-05-18T03:46:24.311Z,100344.91
2018-05-18T03:48:53.016Z,100348.42
2018-05-18T03:51:21.459Z,100357.09
2018-05-18T03:53:49.892Z,100344.47
2018-05-18T03:56:18.352Z,100356.13
2018-05-18T03:58:46.780Z,100356.77
2018-05-18T04:01:26.924Z,100361.87
2018-05-18T04:04:07.111Z,100362.44
2018-05-18T04:06:47.280Z,100361.67
2018-05-18T04:09:15.708Z,100363.63
2018-05-18T04:11:44.129Z,100369.92
2018-05-18T04:14:12.604Z,100376.45
2018-05-18T04:16:41.041Z,100366.61
2018-05-18T04:19:09.461Z,100377.95
2018-05-18T04:21:37.936Z,100377.13
2018-05-18T04:24:06.364Z,100377.80
2018-05-18T04:26:34.793Z,100381.91
2018-05-18T04:29:03.256Z,100384.14
2018-05-18T04:31:31.686Z,100376.55
2018-05-18T04:34:00.119Z,100379.13
2018-05-18T04:36:28.600Z,100377.60
2018-05-18T04:38:57.044Z,100384.39
2018-05-18T04:41:25.466Z,100379.13
2018-05-18T04:43:53.932Z,100389.20
2018-05-18T04:46:22.363Z,100393.91
2018-05-18T04:48:50.793Z,100392.66
2018-05-18T04:51:19.256Z,100390.27
2018-05-18T04:53:47.676Z,100390.69
2018-05-18T04:56:16.118Z,100388.86
2018-05-18T04:58:44.668Z,100391.45
2018-05-18T05:01:13.044Z,100393.36
2018-05-18T05:03:41.472Z,100397.03
2018-05-18T05:06:09.949Z,100404.70
2018-05-18T05:08:38.387Z,100409.86
2018-05-18T05:11:06.815Z,100405.33
2018-05-18T05:13:35.307Z,100409.44
2018-05-18T05:16:03.750Z,100411.06
2018-05-18T05:18:32.232Z,100414.11
2018-05-18T05:21:00.700Z,100417.34
2018-05-18T05:23:29.131Z,100414.20
2018-05-18T05:25:57.559Z,100421.86
2018-05-18T05:28:26.043Z,100421.92
2018-05-18T05:30:54.469Z,100422.67
2018-05-18T05:33:22.889Z,100432.98
2018-05-18T05:35:51.386Z,100428.50
2018-05-18T05:38:19.808Z,100429.85
2018-05-18T05:40:48.229Z,100431.21
2018-05-18T05:43:16.707Z,100432.22
2018-05-18T05:45:45.127Z,100431.65
2018-05-18T05:48:13.560Z,100427.83
2018-05-18T05:50:42.045Z,100432.32
2018-05-18T05:53:10.470Z,100427.70
2018-05-18T05:55:38.897Z,100433.53
2018-05-18T05:58:07.375Z,100436.89
2018-05-18T06:00:35.803Z,100441.56
2018-05-18T06:03:04.229Z,100434.45
2018-05-18T06:05:33.414Z,100438.08
2018-05-18T06:08:01.848Z,100434.49
2018-05-18T06:10:30.288Z,100443.86
2018-05-18T06:12:58.761Z,100442.88
2018-05-18T06:15:27.188Z,100451.34
2018-05-18T06:17:55.674Z,100448.23
2018-05-18T06:20:24.152Z,100453.17
2018-05-18T06:22:52.592Z,100459.79
2018-05-18T06:25:21.042Z,100456.95
2018-05-18T06:27:49.523Z,100455.06
2018-05-18T06:30:17.944Z,100454.97
2018-05-18T06:32:46.376Z,100457.44
2018-05-18T06:35:14.970Z,100457.69
2018-05-18T06:37:43.353Z,100456.55
2018-05-18T06:40:12.640Z,100457.77
2018-05-18T06:42:41.166Z,100459.80
2018-05-18T06:45:09.593Z,100465.61
2018-05-18T06:47:38.076Z,100465.91
2018-05-18T06:50:06.581Z,100463.59
2018-05-18T06:52:35.099Z,100475.57
2018-05-18T06:55:03.511Z,100468.22
2018-05-18T06:57:31.989Z,100472.52
2018-05-18T07:00:00.420Z,100476.12
2018-05-18T07:02:28.854Z,100474.91
2018-05-18T07:04:57.333Z,100473.02
2018-05-18T07:07:26.322Z,100466.80
2018-05-18T07:09:54.776Z,100466.34
2018-05-18T07:12:23.240Z,100471.94
2018-05-18T07:14:51.676Z,100470.91
2018-05-18T07:17:20.107Z,100468.89
2018-05-18T07:19:48.589Z,100471.34
2018-05-18T07:22:17.019Z,100472.23
2018-05-18T07:24:45.445Z,100464.47
2018-05-18T07:27:13.946Z,100473.42
2018-05-18T07:29:42.374Z,100473.38
2018-05-18T07:32:10.818Z,100480.70
2018-05-18T07:34:39.329Z,100479.41
2018-05-18T07:37:07.758Z,100476.20
2018-05-18T07:39:36.182Z,100476.91
2018-05-18T07:42:04.681Z,100470.28
2018-05-18T07:44:33.106Z,100474.73
2018-05-18T07:47:01.533Z,100478.41
2018-05-18T07:49:30.052Z,100472.73
2018-05-18T07:51:58.472Z,100480.19
2018-05-18T07:54:26.892Z,100479.91
2018-05-18T07:56:55.373Z,100473.84
2018-05-18T07:59:23.868Z,100473.91
2018-05-18T08:01:52.297Z,100471.39
2018-05-18T08:04:20.760Z,100475.41
2018-05-18T08:06:49.204Z,100471.29
2018-05-18T08:09:17.636Z,100474.52
2018-05-18T08:11:46.108Z,100482.08
2018-05-18T08:14:14.532Z,100480.31
2018-05-18T08:16:42.971Z,100485.27
2018-05-18T08:19:11.452Z,100475.95
2018-05-18T08:24:14.493Z,100477.70
2018-05-18T08:26:43.537Z,100488.30
2018-05-18T08:29:23.879Z,100484.27
2018-05-18T08:31:52.318Z,100494.67
2018-05-18T08:34:20.761Z,100488.77
2018-05-18T08:36:49.220Z,100491.27
2018-05-18T08:39:17.655Z,100498.68
2018-05-18T08:41:46.159Z,100501.58
2018-05-18T08:44:14.590Z,100499.89
2018-05-18T08:46:43.023Z,100504.05
2018-05-18T08:49:11.443Z,100500.22
2018-05-18T08:51:39.940Z,100496.70
2018-05-18T08:54:08.393Z,100500.81
2018-05-18T08:56:36.828Z,100503.99
2018-05-18T08:59:05.302Z,100500.43
2018-05-18T09:01:33.733Z,100498.09
2018-05-18T09:04:02.162Z,100501.20
2018-05-18T09:06:30.625Z,100494.66
2018-05-18T09:08:59.159Z,100502.16
2018-05-18T09:11:27.540Z,100509.78
2018-05-18T09:13:56.004Z,100510.75
2018-05-18T09:16:24.433Z,100505.57
2018-05-18T09:18:52.855Z,100511.28
2018-05-18T09:21:21.312Z,100511.70
2018-05-18T09:23:49.736Z,100518.66
2018-05-18T09:26:18.168Z,100518.70
2018-05-18T09:28:46.784Z,100520.09
2018-05-18T09:31:15.221Z,100519.83
2018-05-18T09:33:43.632Z,100515.78
2018-05-18T09:36:12.149Z,100521.13
2018-05-18T09:38:40.581Z,100528.74
2018-05-18T09:41:09.006Z,100518.67
2018-05-18T09:43:37.464Z,100519.16
2018-05-18T09:46:05.901Z,100517.41
2018-05-18T09:48:34.341Z,100518.41
2018-05-18T09:51:02.824Z,100518.49
2018-05-18T09:53:31.248Z,100520.25
2018-05-18T09:55:59.684Z,100521.69
2018-05-18T09:58:28.150Z,100524.05
2018-05-18T10:00:56.576Z,100519.14
2018-05-18T10:03:25.004Z,100524.05
2018-05-18T10:05:53.473Z,100521.27
2018-05-18T10:08:21.901Z,100520.55
2018-05-18T10:10:50.329Z,100523.44
2018-05-18T10:13:18.798Z,100524.70
2018-05-18T10:15:47.221Z,100527.59
2018-05-18T10:18:15.641Z,100525.57
2018-05-18T10:20:44.106Z,100531.74
2018-05-18T10:23:12.524Z,100529.36
2018-05-18T10:25:40.955Z,100532.05
2018-05-18T10:28:09.433Z,100531.13
2018-05-18T10:30:37.860Z,100533.13
2018-05-18T10:33:06.316Z,100530.48
2018-05-18T10:35:34.796Z,100537.21
2018-05-18T10:38:03.214Z,100532.39
2018-05-18T10:40:31.987Z,100530.38
2018-05-18T10:43:00.464Z,100534.98
2018-05-18T10:45:28.976Z,100530.38
2018-05-18T10:47:57.356Z,100531.37
2018-05-18T10:50:25.853Z,100527.82
2018-05-18T10:52:54.272Z,100532.95
2018-05-18T10:55:22.729Z,100530.62
2018-05-18T10:57:51.188Z,100533.88
2018-05-18T11:00:19.618Z,100538.85
2018-05-18T11:02:48.044Z,100534.84
2018-05-18T11:05:16.583Z,100537.38
2018-05-18T11:07:44.968Z,100537.37
2018-05-18T11:10:13.388Z,100533.67
2018-05-18T11:12:41.856Z,100530.59
2018-05-18T11:15:10.295Z,100523.13
2018-05-18T11:17:38.741Z,100534.57
2018-05-18T11:20:07.339Z,100527.27
2018-05-18T11:22:35.726Z,100522.92
2018-05-18T11:25:04.216Z,100521.67
2018-05-18T11:27:32.689Z,100521.98
2018-05-18T11:30:01.119Z,100520.56
2018-05-18T11:32:29.549Z,100511.54
2018-05-18T11:34:58.028Z,100512.81
2018-05-18T11:37:26.448Z,100510.78
2018-05-18T11:39:54.873Z,100509.02
2018-05-18T11:42:23.363Z,100512.42
2018-05-18T11:44:51.790Z,100500.65
2018-05-18T11:47:20.222Z,100507.21
2018-05-18T11:49:48.713Z,100510.30
2018-05-18T11:52:17.127Z,100510.10
2018-05-18T11:54:45.600Z,100514.64
2018-05-18T11:57:14.062Z,100507.86
2018-05-18T11:59:42.477Z,100507.69
2018-05-18T12:02:10.917Z,100508.77
2018-05-18T12:04:39.398Z,100504.75
2018-05-18T12:07:07.836Z,100507.52
2018-05-18T12:09:36.272Z,100503.16
2018-05-18T12:12:04.729Z,100509.56
2018-05-18T12:14:33.171Z,100502.23
2018-05-18T12:17:01.608Z,100502.31
2018-05-18T12:19:30.109Z,100500.03
2018-05-18T12:21:58.539Z,100503.90
2018-05-18T12:24:27.000Z,100504.76
2018-05-18T12:26:55.476Z,100507.70
2018-05-18T12:29:23.896Z,100502.82
2018-05-18T12:31:52.323Z,100506.16
2018-05-18T12:34:20.809Z,100504.04
2018-05-18T12:36:49.216Z,100500.66
2018-05-18T12:39:17.642Z,100500.81
2018-05-18T12:41:46.120Z,100499.67
2018-05-18T12:44:14.540Z,100500.95
2018-05-18T12:46:43.211Z,100499.16
2018-05-18T12:49:11.693Z,100500.80
2018-05-18T12:51:40.132Z,100498.90
2018-05-18T12:54:08.589Z,100497.91
2018-05-18T12:56:37.097Z,100497.39
2018-05-18T12:59:05.529Z,100496.16
2018-05-18T13:01:33.946Z,100497.30
2018-05-18T13:04:02.400Z,100500.79
2018-05-18T13:06:30.832Z,100492.58
2018-05-18T13:08:59.294Z,100495.48
2018-05-18T13:11:27.777Z,100496.16
2018-05-18T13:13:56.196Z,100494.80
2018-05-18T13:16:24.633Z,100497.05
2018-05-18T13:18:53.116Z,100497.49
2018-05-18T13:21:21.614Z,100499.27
2018-05-18T13:23:50.041Z,100500.63
2018-05-18T13:26:18.506Z,100504.92
2018-05-18T13:28:46.948Z,100505.30
2018-05-18T13:31:15.383Z,100503.21
2018-05-18T13:33:43.864Z,100503.36
2018-05-18T13:36:12.280Z,100502.88
2018-05-18T13:38:40.803Z,100503.16
2018-05-18T13:41:09.200Z,100502.98
2018-05-18T13:43:37.633Z,100499.88
2018-05-18T13:46:06.089Z,100501.98
2018-05-18T13:48:34.840Z,100504.16
2018-05-18T13:51:03.300Z,100500.27
2018-05-18T13:53:31.728Z,100500.27
2018-05-18T13:56:00.208Z,100497.34
2018-05-18T13:58:28.656Z,100500.87
2018-05-18T14:00:57.075Z,100499.68
2018-05-18T14:03:25.533Z,100498.19
2018-05-18T14:05:54.007Z,100490.23
2018-05-18T14:08:22.406Z,100487.11
2018-05-18T14:10:50.873Z,100486.85
2018-05-18T14:13:19.284Z,100489.09
2018-05-18T14:15:47.719Z,100491.89
2018-05-18T14:18:16.190Z,100496.69
2018-05-18T14:20:44.617Z,100496.84
2018-05-18T14:23:13.070Z,100499.81
2018-05-18T14:25:41.524Z,100506.14
2018-05-18T14:28:09.941Z,100502.48
2018-05-18T14:30:38.369Z,100498.28
2018-05-18T14:33:06.836Z,100491.73
2018-05-18T14:35:35.258Z,100492.20
2018-05-18T14:38:03.726Z,100493.52
2018-05-18T14:40:32.227Z,100493.06
2018-05-18T14:43:00.666Z,100487.23
2018-05-18T14:45:29.097Z,100484.81
2018-05-18T14:47:57.561Z,100485.23
2018-05-18T14:50:25.985Z,100484.84
2018-05-18T14:52:54.400Z,100482.14
2018-05-18T14:55:22.860Z,100487.29
2018-05-18T14:57:51.300Z,100485.61
2018-05-18T15:00:19.744Z,100483.16
2018-05-18T15:02:48.228Z,100484.48
2018-05-18T15:05:16.662Z,100490.12
2018-05-18T15:07:45.092Z,100490.02
2018-05-18T15:10:13.548Z,100485.05
2018-05-18T15:12:41.965Z,100490.85
2018-05-18T15:15:10.409Z,100491.17
2018-05-18T15:17:38.880Z,100487.44
2018-05-18T15:20:07.304Z,100487.50
2018-05-18T15:22:35.744Z,100486.38
2018-05-18T15:25:04.249Z,100493.84
2018-05-18T15:27:32.675Z,100490.77
2018-05-18T15:30:01.097Z,100487.16
2018-05-18T15:32:29.598Z,100484.23
2018-05-18T15:34:58.046Z,100484.83
2018-05-18T15:37:26.565Z,100485.14
2018-05-18T15:39:54.999Z,100488.05
2018-05-18T15:42:23.433Z,100480.16
2018-05-18T15:44:51.879Z,100479.23
2018-05-18T15:47:20.382Z,100487.00
2018-05-18T15:49:48.808Z,100483.17
2018-05-18T15:52:17.236Z,100480.16
2018-05-18T15:54:45.738Z,100480.99
2018-05-18T15:57:14.180Z,100477.08
2018-05-18T15:59:42.613Z,100476.61
2018-05-18T16:02:11.091Z,100475.89
2018-05-18T16:04:39.508Z,100470.19
2018-05-18T16:07:07.924Z,100474.36
2018-05-18T16:09:36.392Z,100477.00
2018-05-18T16:12:04.840Z,100472.78
2018-05-18T16:14:33.264Z,100471.06
2018-05-18T16:17:01.748Z,100469.88
2018-05-18T16:19:30.181Z,100470.21
2018-05-18T16:21:58.619Z,100471.41
2018-05-18T16:24:27.108Z,100469.30
2018-05-18T16:26:55.536Z,100467.91
2018-05-18T16:29:23.964Z,100462.98
2018-05-18T16:31:52.474Z,100463.11
2018-05-18T16:34:20.899Z,100459.84
2018-05-18T16:36:49.322Z,100460.73
2018-05-18T16:39:17.772Z,100462.41
2018-05-18T16:41:46.190Z,100464.85
2018-05-18T16:44:14.626Z,100460.39
2018-05-18T16:46:43.091Z,100456.56
2018-05-18T16:49:11.516Z,100464.23
2018-05-18T16:51:39.951Z,100458.92
2018-05-18T16:54:08.413Z,100455.66
2018-05-18T16:56:36.836Z,100458.92
2018-05-18T16:59:05.278Z,100457.93
2018-05-18T17:01:33.748Z,100455.34
2018-05-18T17:04:02.180Z,100454.95
2018-05-18T17:06:30.628Z,100453.42
2018-05-18T17:08:59.123Z,100448.66
2018-05-18T17:11:27.549Z,100446.45
2018-05-18T17:13:55.972Z,100452.28
2018-05-18T17:16:24.444Z,100455.30
2018-05-18T17:18:53.078Z,100458.99
2018-05-18T17:21:21.492Z,100454.19
2018-05-18T17:23:49.972Z,100448.02
2018-05-18T17:26:18.384Z,100452.41
2018-05-18T17:28:46.800Z,100457.36
2018-05-18T17:31:15.280Z,100460.19
2018-05-18T17:33:43.871Z,100458.93
2018-05-18T17:36:12.357Z,100461.46
2018-05-18T17:38:40.911Z,100458.36
2018-05-18T17:41:09.348Z,100459.87
2018-05-18T17:43:37.765Z,100456.01
2018-05-18T17:46:06.246Z,100467.12
2018-05-18T17:48:34.682Z,100464.42
2018-05-18T17:51:03.099Z,100462.98
2018-05-18T17:53:31.570Z,100458.30
2018-05-18T17:55:59.996Z,100466.02
2018-05-18T17:58:28.814Z,100462.65
2018-05-18T18:00:57.276Z,100451.30
2018-05-18T18:03:25.700Z,100452.92
2018-05-18T18:05:54.129Z,100452.08
2018-05-18T18:08:22.588Z,100450.31
2018-05-18T18:10:51.009Z,100452.08
2018-05-18T18:13:19.514Z,100453.26
2018-05-18T18:15:48.032Z,100447.31
2018-05-18T18:18:16.496Z,100451.01
2018-05-18T18:20:44.944Z,100449.27
2018-05-18T18:23:13.415Z,100452.44
2018-05-18T18:25:41.875Z,100454.55
2018-05-18T18:28:10.298Z,100454.80
2018-05-18T18:30:38.763Z,100452.98
2018-05-18T18:33:07.197Z,100456.75
2018-05-18T18:35:35.650Z,100454.91
2018-05-18T18:38:04.126Z,100459.77
2018-05-18T18:40:32.566Z,100458.97
2018-05-18T18:43:01.036Z,100450.72
2018-05-18T18:45:29.512Z,100457.44
2018-05-18T18:47:57.976Z,100453.08
2018-05-18T18:50:26.408Z,100458.98
2018-05-18T18:52:54.884Z,100458.37
2018-05-18T18:55:23.323Z,100457.20
2018-05-18T18:57:51.754Z,100453.92
2018-05-18T19:00:20.223Z,100463.26
2018-05-18T19:02:48.655Z,100460.31
2018-05-18T19:05:17.092Z,100462.84
2018-05-18T19:07:45.560Z,100463.51
2018-05-18T19:10:13.989Z,100465.58
2018-05-18T19:12:42.417Z,100471.19
2018-05-18T19:15:10.901Z,100473.29
2018-05-18T19:17:39.334Z,100479.12
2018-05-18T19:20:07.773Z,100480.81
2018-05-18T19:22:36.272Z,100491.80
2018-05-18T19:25:04.697Z,100494.25
2018-05-18T19:27:33.184Z,100490.73
2018-05-18T19:30:01.659Z,100488.94
2018-05-18T19:32:30.088Z,100487.42
2018-05-18T19:34:58.538Z,100496.75
2018-05-18T19:37:27.063Z,100487.08
2018-05-18T19:39:55.482Z,100487.35
2018-05-18T19:42:23.903Z,100495.48
2018-05-18T19:44:52.366Z,100499.28
2018-05-18T19:47:20.817Z,100497.77
2018-05-18T19:49:49.252Z,100494.38
2018-05-18T19:52:17.745Z,100501.95
2018-05-18T19:54:46.177Z,100499.76
2018-05-18T19:57:14.622Z,100494.66
2018-05-18T19:59:43.119Z,100501.52
2018-05-18T20:02:11.540Z,100505.22
2018-05-18T20:04:39.985Z,100509.33
2018-05-18T20:07:08.474Z,100508.16
2018-05-18T20:09:36.915Z,100506.22
2018-05-18T20:12:05.353Z,100504.30
2018-05-18T20:14:33.833Z,100507.86
2018-05-18T20:17:02.488Z,100514.67
2018-05-18T20:19:30.992Z,100515.31
2018-05-18T20:21:59.471Z,100515.84
2018-05-18T20:24:27.900Z,100511.72
2018-05-18T20:26:56.340Z,100505.75
2018-05-18T20:29:24.980Z,100512.57
2018-05-18T20:31:53.400Z,100510.07
2018-05-18T20:34:21.823Z,100512.16
2018-05-18T20:36:50.290Z,100507.27
2018-05-18T20:39:18.737Z,100504.64
2018-05-18T20:41:47.159Z,100507.48
2018-05-18T20:44:15.616Z,100503.88
2018-05-18T20:46:44.034Z,100508.85
2018-05-18T20:49:12.458Z,100506.51
2018-05-18T20:51:40.956Z,100513.73
2018-05-18T20:54:09.387Z,100511.45
2018-05-18T20:56:37.828Z,100512.41
2018-05-18T20:59:06.314Z,100516.73
2018-05-18T21:01:34.741Z,100511.72
2018-05-18T21:04:03.167Z,100509.62
2018-05-18T21:06:31.638Z,100513.10
2018-05-18T21:09:00.064Z,100511.94
2018-05-18T21:11:28.513Z,100512.06
2018-05-18T21:13:57.000Z,100512.88
2018-05-18T21:16:25.429Z,100516.73
2018-05-18T21:18:53.861Z,100517.69
2018-05-18T21:21:22.388Z,100518.87
2018-05-18T21:23:50.829Z,100516.84
2018-05-18T21:26:19.276Z,100522.70
2018-05-18T21:28:47.745Z,100521.13
2018-05-18T21:31:16.164Z,100525.02
2018-05-18T21:33:44.595Z,100521.80
2018-05-18T21:36:13.086Z,100519.38
2018-05-18T21:38:41.515Z,100515.58
2018-05-18T21:41:09.945Z,100518.75
2018-05-18T21:43:38.409Z,100520.39
2018-05-18T21:46:06.876Z,100524.03
2018-05-18T21:48:35.306Z,100524.98
2018-05-18T21:51:03.770Z,100519.78
2018-05-18T21:53:32.205Z,100516.97
2018-05-18T21:56:00.628Z,100512.69
2018-05-18T21:58:29.146Z,100517.80
2018-05-18T22:00:57.553Z,100517.75
2018-05-18T22:03:25.977Z,100517.45
2018-05-18T22:05:54.440Z,100517.89
2018-05-18T22:08:22.877Z,100518.02
2018-05-18T22:10:51.307Z,100515.70
2018-05-18T22:13:19.760Z,100518.70
2018-05-18T22:15:48.190Z,100518.28
2018-05-18T22:18:16.611Z,100521.35
2018-05-18T22:20:45.089Z,100519.16
2018-05-18T22:23:13.520Z,100523.95
2018-05-18T22:25:41.949Z,100523.97
2018-05-18T22:28:10.440Z,100525.50
2018-05-18T22:30:38.869Z,100527.58
2018-05-18T22:33:07.296Z,100525.80
2018-05-18T22:35:35.869Z,100526.70
2018-05-18T22:38:04.319Z,100521.38
2018-05-18T22:40:32.758Z,100521.13
2018-05-18T22:43:01.248Z,100519.27
2018-05-18T22:45:29.675Z,100519.64
2018-05-18T22:47:58.100Z,100512.16
2018-05-18T22:50:26.576Z,100511.39
2018-05-18T22:52:54.997Z,100518.23
2018-05-18T22:55:23.429Z,100515.91
2018-05-18T22:57:51.892Z,100511.12
2018-05-18T23:00:28.952Z,100507.30
2018-05-18T23:02:57.408Z,100508.64
2018-05-18T23:05:25.836Z,100511.34
2018-05-18T23:07:54.280Z,100507.86
2018-05-18T23:10:22.741Z,100506.91
2018-05-18T23:12:51.185Z,100512.98
2018-05-18T23:15:19.950Z,100512.98
2018-05-18T23:17:48.469Z,100515.56
2018-05-18T23:20:16.905Z,100512.85
2018-05-18T23:22:45.360Z,100505.02
2018-05-18T23:25:13.849Z,100511.89
2018-05-18T23:27:42.284Z,100510.00
2018-05-18T23:30:10.707Z,100508.51
2018-05-18T23:32:39.195Z,100508.68
2018-05-18T23:35:07.625Z,100510.34
2018-05-18T23:37:36.046Z,100510.78
2018-05-18T23:40:04.529Z,100515.11
2018-05-18T23:42:32.961Z,100508.12
2018-05-18T23:45:01.389Z,100509.66
2018-05-18T23:47:29.860Z,100511.16
2018-05-18T23:49:58.277Z,100510.51
2018-05-18T23:52:26.706Z,100506.11
2018-05-18T23:54:55.209Z,100503.98
2018-05-18T23:57:23.624Z,100507.56
2018-05-18T23:59:52.048Z,100506.30
